Wellpinit, WA (99040)

11:39 PM PDT on July 11, 2014 (GMT -0700)
Four Mound Prairie (KWAREARD2) Elev 2452 ft | 47.78 °N, 117.73 °W | Change Station

Current weather conditions updated 7 seconds ago

Clear
Clear
64.9 °F
Feels Like 64.9 °F
N
0.0
Wind Variable Wind from North
Gusts 0.0 mph

Tomorrow is forecast to be nearly the same temperature as today.

Today
High -- | Low -- °F
--% Chance of Precip.
Yesterday
High -- | Low -- °F
Precip. -- in
5:05 AM 8:49 PM
Full, 100% visible
Pressure 29.98 in
Visibility 10.0 miles
Clouds Clear
Dew Point 48 °F
Humidity 55%
Rainfall 0.00 in
Snow Depth Not available.
UV 0 out of 12
Pollen 5.60 out of 12
PM2.5 Moderate
Flu Activity Sporadic
METAR KSKA 120558Z AUTO 06005KT 10SM CLR 25/05 A3003 RMK AO2 SLP152 T02510054 10328 20238 52008

More Conditions Fewer Conditions

Pressure 29.98 in
Visibility 10.0 miles
Clouds Clear
Dew Point 48 °F
Humidity 55%
Rainfall 0.00 in
Snow Depth Not available.
UV 0 out of 12
Pollen 5.60 out of 12
PM2.5 Moderate
Flu Activity Sporadic
METAR KSKA 120558Z AUTO 06005KT 10SM CLR 25/05 A3003 RMK AO2 SLP152 T02510054 10328 20238 52008

More Conditions Fewer Conditions

10-Day Weather Forecast

Almanac

Astronomy

Jul. 11, 2014 Rise Set
Actual Time 5:05 AM PDT 8:49 PM PDT
Civil Twilight 4:25 AM PDT 9:29 PM PDT
Nautical Twilight 3:31 AM PDT 10:22 PM PDT
Astronomical Twilight 2:13 AM PDT 11:39 PM PDT
Moon 7:57 PM PDT (7/11) 4:27 AM PDT (7/11)
Length of Visible Light 17h 04m
Length of Day
15h 44m
Tomorrow will be 1m 38s shorter.
Full, 100% of the Moon is Illuminated
Jul 12
Full
Jul 12
Full
Jul 18
Last Quarter
Jul 26
New
Aug 3
First Quarter

Community

WunderPhotos

Upload Photos

1,732,718 photos uploaded!

Nearby

Air Quality

  Air Quality AQ Index Pollutant
Yesterday Good
PM10
Yesterday Moderate
OZONE
Current Moderate
PM2.5
Friday Good
PM10
Friday Moderate
OZONE
Saturday Good
PM10
Saturday Moderate
OZONE
Sunday Good
PM10
Sunday Moderate
OZONE
Monday Good
PM10
Monday Moderate
OZONE

Snow Depth

Station Depth Elevation
Quartz Peak 1 in 4700 ft
Moses Mountain 1 in 5300 ft
Bunchgrass Meadow 0 in 5000 ft
Sentinel Butte 0 in 4920 ft
Trough 0 in 5300 ft

Earthquake Activity

City Distance Mag. Time & Date
No recent earthquake activity has been reported nearby.
Minimum magnitude displayed is 2.5.

Coastal Water Temperatures

Place Temperature
No Stations Reporting

Nearby Weather Stations

Station Location Temp. Heat Index Dew Point Humidity Wind Precip. Elev Updated Type
RAWS WELLPINIT WA, Wellpinit, WA 78 °F 78 °F 37 °F 23% SE  at  3 mph 0.00 in / hr 2240 ft 10:08 PM PDT MADIS
Four Mound Prairie, Reardan, WA 64.9 °F - 48 °F 55% North  at  0.0 mph 0.00 in / hr 2452 ft 11:39 PM PDT Rapid Fire
Davenport, WA, Davenport, WA 67.5 °F - 46 °F 46% West  at  0.0 mph - / hr 2375 ft 11:38 PM PDT Normal
Seven Bays, Seven Bays, WA 73.9 °F 77 °F 52 °F 47% SE  at  0.0 mph 0.00 in / hr 1332 ft 11:37 PM PDT Rapid Fire

Show More Stations Show Fewer Stations